Time;durP1;ratioP1;P1;durP2;ratioP2;P2;SDS_P1;SDS_P2;PMS_P1;PMS_P2;Temp;Humidity;BMP_temperature;BMP_pressure;BME280_temperature;BME280_humidity;BME280_pressure;Samples;Min_cycle;Max_cycle;Signal;HPM_P1;HPM_P2
2022/12/14 00:00:16;;;;;;;;;;;19.00;38.40;;;;;;5098435;28;19926;-61
2022/12/14 00:02:43;;;;;;;;;;;19.00;38.40;;;;;;5098467;28;19920;-60
2022/12/14 00:05:11;;;;;;;;;;;18.90;38.30;;;;;;5098994;28;19926;-60
2022/12/14 00:07:38;;;;;;;;;;;19.00;38.50;;;;;;5096140;28;20112;-60
2022/12/14 00:10:05;;;;;;;;;;;19.00;38.50;;;;;;5096814;28;19923;-61
2022/12/14 00:12:31;;;;;;;;;;;18.90;38.40;;;;;;5097850;28;19965;-61
2022/12/14 00:14:58;;;;;;;;;;;18.90;38.40;;;;;;5096842;28;19928;-60
2022/12/14 00:17:25;;;;;;;;;;;18.90;38.40;;;;;;5115240;28;19919;-61
2022/12/14 00:19:52;;;;;;;;;;;18.90;38.40;;;;;;5114019;28;19988;-61
2022/12/14 00:22:20;;;;;;;;;;;18.90;38.40;;;;;;5096876;28;19926;-61
2022/12/14 00:24:47;;;;;;;;;;;18.90;38.40;;;;;;5093605;28;19919;-61
2022/12/14 00:27:14;;;;;;;;;;;18.90;38.40;;;;;;5114186;28;19920;-61
2022/12/14 00:29:41;;;;;;;;;;;18.90;38.40;;;;;;5098545;28;19919;-60
2022/12/14 00:32:07;;;;;;;;;;;18.90;38.40;;;;;;5095956;28;20010;-61
2022/12/14 00:34:34;;;;;;;;;;;18.90;38.50;;;;;;5098854;28;19923;-60
2022/12/14 00:37:01;;;;;;;;;;;18.90;38.50;;;;;;5090441;28;19926;-60
2022/12/14 00:39:29;;;;;;;;;;;18.90;38.50;;;;;;5076278;28;19920;-60
2022/12/14 00:41:58;;;;;;;;;;;18.90;38.50;;;;;;5080442;28;19927;-61
2022/12/14 00:44:25;;;;;;;;;;;18.90;38.50;;;;;;5096968;28;20362;-60
2022/12/14 00:46:52;;;;;;;;;;;18.90;38.50;;;;;;5113015;28;19920;-60
2022/12/14 00:49:19;;;;;;;;;;;18.90;38.50;;;;;;5112863;28;19939;-60
2022/12/14 00:51:45;;;;;;;;;;;18.90;38.50;;;;;;5093367;28;20317;-60
2022/12/14 00:54:12;;;;;;;;;;;18.90;38.50;;;;;;5111704;28;19970;-60
2022/12/14 00:56:40;;;;;;;;;;;18.90;38.50;;;;;;5093422;28;19927;-60
2022/12/14 00:59:07;;;;;;;;;;;18.90;38.60;;;;;;5103038;28;19920;-60
2022/12/14 01:01:34;;;;;;;;;;;18.90;38.60;;;;;;5095840;28;19927;-60
2022/12/14 01:06:41;;;;;;;;;;;18.90;38.50;;;;;;5094070;28;19919;-60
2022/12/14 01:09:08;;;;;;;;;;;18.90;38.60;;;;;;5094732;28;20016;-60
2022/12/14 01:11:34;;;;;;;;;;;18.90;38.60;;;;;;5093769;28;19920;-60
2022/12/14 01:14:03;;;;;;;;;;;18.90;38.60;;;;;;5096788;28;20017;-60
2022/12/14 01:16:29;;;;;;;;;;;18.90;38.60;;;;;;5094835;28;19923;-64
2022/12/14 01:18:56;;;;;;;;;;;18.90;38.60;;;;;;5097411;28;20302;-60
2022/12/14 01:21:23;;;;;;;;;;;18.90;38.60;;;;;;5095381;28;19920;-61
2022/12/14 01:23:51;;;;;;;;;;;18.90;38.60;;;;;;5095534;28;19920;-60
2022/12/14 01:26:18;;;;;;;;;;;18.90;38.60;;;;;;5093637;28;19920;-60
2022/12/14 01:28:45;;;;;;;;;;;18.90;38.60;;;;;;5092286;28;19970;-60
2022/12/14 01:31:13;;;;;;;;;;;18.90;38.60;;;;;;5094121;28;19920;-60
2022/12/14 01:33:40;;;;;;;;;;;18.90;38.60;;;;;;5095023;28;19974;-61
2022/12/14 01:36:07;;;;;;;;;;;18.90;38.60;;;;;;5099196;28;20381;-60
2022/12/14 01:38:34;;;;;;;;;;;18.90;38.60;;;;;;5077746;28;20018;-60
2022/12/14 01:41:00;;;;;;;;;;;18.90;38.60;;;;;;5077398;28;20354;-60
2022/12/14 01:43:42;;;;;;;;;;;18.90;38.60;;;;;;5093892;28;19919;-60
2022/12/14 01:46:09;;;;;;;;;;;18.90;38.60;;;;;;5096595;28;19920;-60
2022/12/14 01:48:37;;;;;;;;;;;18.90;38.60;;;;;;5094028;28;20026;-60
2022/12/14 01:51:04;;;;;;;;;;;18.80;38.60;;;;;;5095276;28;19955;-60
2022/12/14 01:53:30;;;;;;;;;;;18.80;38.60;;;;;;5095228;28;19919;-60
2022/12/14 01:55:57;;;;;;;;;;;18.90;38.60;;;;;;5092851;28;19935;-60
2022/12/14 01:58:24;;;;;;;;;;;18.80;38.60;;;;;;5094420;28;19920;-60
2022/12/14 02:00:52;;;;;;;;;;;18.80;39.10;;;;;;5094870;28;19924;-60
2022/12/14 02:03:19;;;;;;;;;;;18.80;38.60;;;;;;5094604;28;19919;-60
2022/12/14 02:05:52;;;;;;;;;;;18.80;38.60;;;;;;5096837;28;19920;-60
2022/12/14 02:08:19;;;;;;;;;;;18.80;38.60;;;;;;5100783;27;19926;-60
2022/12/14 02:10:46;;;;;;;;;;;18.80;38.60;;;;;;5107420;28;19920;-59
2022/12/14 02:13:14;;;;;;;;;;;18.80;38.60;;;;;;5092519;28;19919;-60
2022/12/14 02:15:41;;;;;;;;;;;18.80;38.60;;;;;;5090713;28;19935;-60
2022/12/14 02:18:08;;;;;;;;;;;18.80;38.60;;;;;;5094300;28;19920;-60
2022/12/14 02:20:35;;;;;;;;;;;18.80;38.60;;;;;;5096087;28;19920;-60
2022/12/14 02:23:29;;;;;;;;;;;18.80;38.60;;;;;;5112978;28;19919;-59
2022/12/14 02:26:04;;;;;;;;;;;18.80;38.60;;;;;;5096865;28;19927;-60
2022/12/14 02:28:37;;;;;;;;;;;18.80;38.60;;;;;;5093017;28;19923;-60
2022/12/14 02:31:06;;;;;;;;;;;18.80;38.60;;;;;;5091486;28;19923;-60
2022/12/14 02:33:35;;;;;;;;;;;18.80;38.60;;;;;;5092892;28;19920;-60
2022/12/14 02:36:02;;;;;;;;;;;18.80;38.60;;;;;;5103485;28;19920;-61
2022/12/14 02:38:40;;;;;;;;;;;18.80;38.60;;;;;;5090726;28;19920;-60
2022/12/14 02:41:08;;;;;;;;;;;18.80;38.60;;;;;;5091733;28;19927;-60
2022/12/14 02:43:36;;;;;;;;;;;18.80;38.60;;;;;;5092286;28;19920;-61
2022/12/14 02:46:08;;;;;;;;;;;18.80;38.60;;;;;;5090344;28;19920;-60
2022/12/14 02:48:35;;;;;;;;;;;18.80;38.60;;;;;;5091468;28;20300;-60
2022/12/14 02:51:04;;;;;;;;;;;18.80;38.60;;;;;;5091820;28;19965;-60
2022/12/14 02:53:31;;;;;;;;;;;18.80;38.70;;;;;;5102858;28;19977;-60
2022/12/14 02:55:59;;;;;;;;;;;18.80;38.70;;;;;;5094789;28;19924;-60
2022/12/14 02:58:26;;;;;;;;;;;18.80;38.60;;;;;;5093495;28;19923;-61
2022/12/14 03:00:53;;;;;;;;;;;18.80;38.70;;;;;;5093238;28;19927;-61
2022/12/14 03:03:21;;;;;;;;;;;18.80;38.70;;;;;;5090143;28;19927;-60
2022/12/14 03:05:54;;;;;;;;;;;18.80;38.70;;;;;;5089877;28;19920;-60
2022/12/14 03:08:22;;;;;;;;;;;18.80;38.70;;;;;;5090064;28;19931;-61
2022/12/14 03:10:51;;;;;;;;;;;18.80;38.70;;;;;;5091061;28;19920;-60
2022/12/14 03:13:18;;;;;;;;;;;18.80;38.70;;;;;;5072938;28;19920;-60
2022/12/14 03:15:46;;;;;;;;;;;18.80;38.70;;;;;;5080368;28;19927;-60
2022/12/14 03:18:13;;;;;;;;;;;18.80;38.60;;;;;;5093799;28;20378;-60
2022/12/14 03:20:42;;;;;;;;;;;18.80;38.70;;;;;;5112723;28;19977;-62
2022/12/14 03:23:09;;;;;;;;;;;18.80;38.70;;;;;;5095322;28;19958;-60
2022/12/14 03:25:37;;;;;;;;;;;18.80;38.70;;;;;;5093553;28;19973;-60
2022/12/14 03:28:05;;;;;;;;;;;18.80;38.70;;;;;;5094218;28;19969;-60
2022/12/14 03:30:33;;;;;;;;;;;18.80;38.70;;;;;;5093877;28;19965;-60
2022/12/14 03:33:01;;;;;;;;;;;18.80;38.70;;;;;;5113756;28;19919;-60
2022/12/14 03:35:29;;;;;;;;;;;18.80;38.70;;;;;;5095805;28;19920;-61
2022/12/14 03:37:58;;;;;;;;;;;18.80;38.70;;;;;;5097481;28;19945;-60
2022/12/14 03:40:27;;;;;;;;;;;18.80;38.70;;;;;;5117583;28;19920;-60
2022/12/14 03:42:56;;;;;;;;;;;18.80;38.70;;;;;;5092066;28;19920;-60
2022/12/14 03:45:24;;;;;;;;;;;18.80;38.70;;;;;;5079008;28;19920;-60
2022/12/14 03:47:59;;;;;;;;;;;18.80;38.70;;;;;;5078762;28;19971;-62
2022/12/14 03:50:27;;;;;;;;;;;18.80;38.70;;;;;;5084851;28;19934;-61
2022/12/14 03:52:55;;;;;;;;;;;18.80;38.70;;;;;;5094065;28;19920;-60
2022/12/14 03:55:24;;;;;;;;;;;18.80;38.70;;;;;;5095374;28;19920;-60
2022/12/14 03:57:56;;;;;;;;;;;18.80;38.70;;;;;;5096494;28;20327;-60
2022/12/14 04:00:23;;;;;;;;;;;18.80;38.70;;;;;;5095384;28;19928;-60
2022/12/14 04:02:51;;;;;;;;;;;18.80;38.70;;;;;;5116076;28;19945;-60
2022/12/14 04:05:18;;;;;;;;;;;18.80;38.80;;;;;;5096481;28;19920;-61
2022/12/14 04:07:46;;;;;;;;;;;18.80;38.70;;;;;;5094214;28;20255;-60
2022/12/14 04:21:13;;;;;;;;;;;18.80;38.80;;;;;;5109309;28;19920;-61
2022/12/14 04:26:26;;;;;;;;;;;18.80;38.80;;;;;;5075505;28;19920;-60
2022/12/14 04:31:40;;;;;;;;;;;18.80;38.80;;;;;;5098418;28;19926;-61
2022/12/14 04:34:07;;;;;;;;;;;18.80;38.80;;;;;;5098069;28;19924;-61
2022/12/14 04:36:35;;;;;;;;;;;18.80;38.80;;;;;;5090571;28;20361;-61
2022/12/14 04:39:02;;;;;;;;;;;18.80;38.80;;;;;;5087954;28;19938;-61
2022/12/14 04:41:30;;;;;;;;;;;18.80;38.80;;;;;;5096255;28;19920;-60
2022/12/14 04:43:59;;;;;;;;;;;18.80;38.80;;;;;;5116303;28;19919;-61
2022/12/14 04:46:26;;;;;;;;;;;18.80;38.80;;;;;;5092055;28;19920;-60
2022/12/14 04:48:54;;;;;;;;;;;18.80;38.80;;;;;;5094140;28;19919;-60
2022/12/14 04:51:22;;;;;;;;;;;18.80;38.80;;;;;;5098688;28;19973;-60
2022/12/14 04:53:49;;;;;;;;;;;18.80;38.80;;;;;;5101453;28;19920;-61
2022/12/14 04:56:17;;;;;;;;;;;18.80;38.80;;;;;;5077429;28;19943;-60
2022/12/14 04:58:43;;;;;;;;;;;18.80;38.80;;;;;;5092043;28;19920;-60
2022/12/14 05:01:15;;;;;;;;;;;18.80;38.80;;;;;;5097706;28;19990;-60
2022/12/14 05:03:44;;;;;;;;;;;18.80;38.80;;;;;;5096289;28;19972;-60
2022/12/14 05:06:13;;;;;;;;;;;18.80;38.80;;;;;;5096063;28;20270;-60
2022/12/14 05:08:53;;;;;;;;;;;18.70;38.70;;;;;;5076603;28;19919;-61
2022/12/14 05:11:21;;;;;;;;;;;18.80;38.80;;;;;;5092770;28;20389;-60
2022/12/14 05:13:49;;;;;;;;;;;18.80;38.80;;;;;;5094604;28;19920;-60
2022/12/14 05:16:17;;;;;;;;;;;18.80;38.80;;;;;;5091286;28;19920;-60
2022/12/14 05:18:43;;;;;;;;;;;18.80;38.80;;;;;;5093983;28;19970;-60
2022/12/14 05:21:45;;;;;;;;;;;18.80;38.80;;;;;;5101446;28;19919;-60
2022/12/14 05:23:57;;;;;;;;;;;18.70;38.70;;;;;;5095381;28;20000;-60
2022/12/14 05:26:24;;;;;;;;;;;18.70;38.70;;;;;;5095563;28;19920;-60
2022/12/14 05:28:51;;;;;;;;;;;18.80;38.80;;;;;;5094567;28;19920;-60
2022/12/14 05:31:19;;;;;;;;;;;18.70;38.70;;;;;;5115438;28;19920;-60
2022/12/14 05:33:45;;;;;;;;;;;18.80;38.80;;;;;;5094638;28;19919;-60
2022/12/14 05:36:12;;;;;;;;;;;18.70;38.70;;;;;;5096895;28;19935;-60
2022/12/14 05:38:40;;;;;;;;;;;18.70;38.70;;;;;;5095021;28;19966;-60
2022/12/14 05:41:06;;;;;;;;;;;18.70;38.70;;;;;;5097122;28;19928;-60
2022/12/14 05:43:33;;;;;;;;;;;18.70;38.70;;;;;;5094280;28;19927;-60
2022/12/14 05:46:00;;;;;;;;;;;18.70;38.70;;;;;;5115405;28;19919;-60
2022/12/14 05:48:28;;;;;;;;;;;18.80;38.80;;;;;;5095247;28;19924;-60
2022/12/14 05:50:55;;;;;;;;;;;18.70;38.70;;;;;;5097240;28;19969;-60
2022/12/14 05:53:22;;;;;;;;;;;18.70;38.70;;;;;;5095299;28;19920;-60
2022/12/14 05:55:49;;;;;;;;;;;18.70;38.70;;;;;;5115380;28;19926;-60
2022/12/14 05:58:15;;;;;;;;;;;18.70;38.70;;;;;;5096651;28;19943;-60
2022/12/14 06:00:42;;;;;;;;;;;18.70;38.70;;;;;;5112174;28;19924;-60
2022/12/14 06:03:09;;;;;;;;;;;18.70;38.70;;;;;;5092670;28;19976;-60
2022/12/14 06:05:37;;;;;;;;;;;18.70;38.70;;;;;;5096137;28;19920;-60
2022/12/14 06:08:04;;;;;;;;;;;18.70;38.70;;;;;;5094150;28;19942;-60
2022/12/14 06:10:31;;;;;;;;;;;18.70;38.80;;;;;;5095454;28;19923;-63
2022/12/14 06:12:57;;;;;;;;;;;18.70;38.80;;;;;;5091785;28;19924;-60
2022/12/14 06:15:24;;;;;;;;;;;18.70;38.70;;;;;;5093190;28;20324;-60
2022/12/14 06:17:51;;;;;;;;;;;18.70;38.80;;;;;;5090353;28;19926;-60
2022/12/14 06:20:18;;;;;;;;;;;18.70;38.80;;;;;;5092885;28;20319;-60
2022/12/14 06:22:46;;;;;;;;;;;18.70;38.80;;;;;;5096295;28;19966;-60
2022/12/14 06:25:12;;;;;;;;;;;18.70;38.80;;;;;;5094175;28;19923;-60
2022/12/14 06:27:39;;;;;;;;;;;18.70;38.80;;;;;;5096146;28;19958;-60
2022/12/14 06:30:07;;;;;;;;;;;18.70;38.70;;;;;;5093309;28;19919;-60
2022/12/14 06:32:34;;;;;;;;;;;18.70;38.80;;;;;;5092917;28;19920;-60
2022/12/14 06:35:00;;;;;;;;;;;18.70;38.80;;;;;;5095829;28;19920;-60
2022/12/14 06:37:27;;;;;;;;;;;18.70;38.80;;;;;;5112016;28;19973;-60
2022/12/14 06:39:55;;;;;;;;;;;18.70;38.80;;;;;;5094267;28;20414;-60
2022/12/14 06:42:22;;;;;;;;;;;18.70;38.80;;;;;;5093884;28;19926;-60
2022/12/14 06:44:49;;;;;;;;;;;18.70;38.80;;;;;;5096136;28;19920;-60
2022/12/14 06:47:17;;;;;;;;;;;18.70;38.80;;;;;;5112563;28;19920;-60
2022/12/14 06:49:43;;;;;;;;;;;18.70;38.80;;;;;;5096001;28;19919;-60
2022/12/14 06:52:10;;;;;;;;;;;18.70;38.80;;;;;;5092665;28;19920;-60
2022/12/14 06:54:37;;;;;;;;;;;18.70;38.80;;;;;;5113974;28;19920;-60
2022/12/14 06:57:05;;;;;;;;;;;18.70;38.80;;;;;;5093259;28;19919;-60
2022/12/14 06:59:32;;;;;;;;;;;18.70;38.80;;;;;;5094056;28;20291;-61
2022/12/14 07:01:58;;;;;;;;;;;18.70;38.80;;;;;;5095323;28;19919;-60
2022/12/14 07:04:25;;;;;;;;;;;18.70;38.80;;;;;;5093477;28;19927;-60
2022/12/14 07:06:52;;;;;;;;;;;18.70;38.80;;;;;;5095386;28;19924;-60
2022/12/14 07:09:19;;;;;;;;;;;18.70;38.80;;;;;;5093685;28;19968;-60
2022/12/14 07:11:46;;;;;;;;;;;18.70;38.80;;;;;;5096396;28;19919;-60
2022/12/14 07:14:15;;;;;;;;;;;18.70;39.40;;;;;;5096355;28;20002;-60
2022/12/14 07:16:42;;;;;;;;;;;18.70;38.80;;;;;;5098430;28;19984;-60
2022/12/14 07:19:09;;;;;;;;;;;18.70;38.80;;;;;;5098880;28;19919;-60
2022/12/14 07:21:36;;;;;;;;;;;18.70;39.10;;;;;;5097229;28;19920;-60
2022/12/14 07:24:03;;;;;;;;;;;18.70;38.80;;;;;;5099914;28;19984;-60
2022/12/14 07:26:30;;;;;;;;;;;18.70;38.80;;;;;;5097235;28;19919;-60
2022/12/14 07:28:57;;;;;;;;;;;18.70;38.80;;;;;;5097703;28;19972;-61
2022/12/14 07:31:26;;;;;;;;;;;18.70;38.80;;;;;;5097191;28;19970;-60
2022/12/14 07:33:53;;;;;;;;;;;18.70;38.90;;;;;;5097389;28;20028;-60
2022/12/14 07:36:20;;;;;;;;;;;18.70;38.90;;;;;;5099604;28;19920;-60
2022/12/14 07:38:47;;;;;;;;;;;18.70;38.90;;;;;;5094708;28;19974;-60
2022/12/14 07:41:15;;;;;;;;;;;18.70;38.90;;;;;;5098177;28;20387;-61
2022/12/14 07:43:42;;;;;;;;;;;18.70;38.90;;;;;;5112211;28;20270;-61
2022/12/14 07:46:09;;;;;;;;;;;18.70;38.00;;;;;;5099591;28;19966;-61
2022/12/14 07:48:37;;;;;;;;;;;18.70;36.50;;;;;;5097380;28;19943;-61
2022/12/14 07:51:04;;;;;;;;;;;18.60;35.30;;;;;;5095517;28;19992;-61
2022/12/14 07:53:31;;;;;;;;;;;18.60;34.80;;;;;;5129324;27;20006;-61
2022/12/14 07:56:03;;;;;;;;;;;18.50;34.50;;;;;;5120275;27;19920;-60
2022/12/14 07:58:30;;;;;;;;;;;18.50;34.50;;;;;;5078967;28;19928;-65
2022/12/14 08:00:57;;;;;;;;;;;18.50;34.30;;;;;;5097565;28;19920;-62
2022/12/14 08:03:23;;;;;;;;;;;18.40;33.90;;;;;;5079593;28;19970;-62
2022/12/14 08:05:52;;;;;;;;;;;18.40;33.20;;;;;;5091393;28;19920;-64
2022/12/14 08:08:18;;;;;;;;;;;18.40;32.90;;;;;;5117200;28;19920;-63
2022/12/14 08:10:48;;;;;;;;;;;18.30;33.10;;;;;;5098852;28;19920;-62
2022/12/14 08:13:14;;;;;;;;;;;18.30;33.50;;;;;;5116940;28;19920;-62
2022/12/14 08:15:41;;;;;;;;;;;18.30;34.00;;;;;;5099661;28;19920;-63
2022/12/14 08:18:08;;;;;;;;;;;18.30;34.40;;;;;;5098427;28;19927;-62
2022/12/14 08:20:35;;;;;;;;;;;18.30;34.70;;;;;;5116541;28;19927;-63
2022/12/14 08:23:03;;;;;;;;;;;18.30;35.00;;;;;;5098896;28;20391;-63
2022/12/14 08:25:29;;;;;;;;;;;18.30;35.20;;;;;;5098796;28;19920;-63
2022/12/14 08:27:56;;;;;;;;;;;18.40;35.50;;;;;;5117121;28;20342;-65
2022/12/14 08:30:23;;;;;;;;;;;18.30;35.60;;;;;;5099072;28;19972;-62
2022/12/14 08:32:50;;;;;;;;;;;18.40;35.80;;;;;;5116676;28;19927;-62
2022/12/14 08:35:17;;;;;;;;;;;18.40;36.00;;;;;;5098365;28;19950;-63
2022/12/14 08:37:44;;;;;;;;;;;18.40;36.10;;;;;;5098636;28;20010;-63
2022/12/14 08:40:13;;;;;;;;;;;18.40;36.20;;;;;;5098408;28;20250;-63
2022/12/14 08:42:39;;;;;;;;;;;18.40;36.30;;;;;;5098876;28;19920;-64
2022/12/14 08:45:07;;;;;;;;;;;18.40;36.40;;;;;;5098841;28;19920;-65
2022/12/14 08:47:33;;;;;;;;;;;18.50;36.60;;;;;;5098530;28;19924;-64
2022/12/14 08:50:00;;;;;;;;;;;18.50;36.70;;;;;;5099247;28;19920;-65
2022/12/14 08:52:27;;;;;;;;;;;18.50;36.80;;;;;;5113438;28;19920;-64
2022/12/14 08:54:54;;;;;;;;;;;18.50;36.80;;;;;;5099159;28;19931;-63
2022/12/14 08:57:22;;;;;;;;;;;18.50;36.90;;;;;;5116590;28;19920;-63
2022/12/14 08:59:49;;;;;;;;;;;18.50;37.00;;;;;;5098334;28;19969;-64
2022/12/14 09:02:16;;;;;;;;;;;18.50;37.00;;;;;;5097975;28;20253;-63
2022/12/14 09:04:42;;;;;;;;;;;18.50;37.00;;;;;;5116306;28;19959;-63
2022/12/14 09:07:09;;;;;;;;;;;18.50;37.10;;;;;;5098091;28;20028;-62
2022/12/14 09:09:36;;;;;;;;;;;18.60;37.30;;;;;;5116160;28;19965;-62
2022/12/14 09:12:05;;;;;;;;;;;18.60;37.30;;;;;;5095582;28;19954;-62
2022/12/14 09:14:33;;;;;;;;;;;18.60;37.40;;;;;;5098379;28;19927;-62
2022/12/14 09:17:00;;;;;;;;;;;18.60;37.40;;;;;;5098244;28;19927;-63
2022/12/14 09:19:27;;;;;;;;;;;18.60;37.40;;;;;;5095572;28;19987;-63
2022/12/14 09:21:54;;;;;;;;;;;18.60;37.40;;;;;;5097440;28;19920;-63
2022/12/14 09:24:21;;;;;;;;;;;18.60;37.50;;;;;;5097981;28;19959;-64
2022/12/14 09:26:48;;;;;;;;;;;18.60;37.50;;;;;;5097332;28;19973;-63
2022/12/14 09:29:15;;;;;;;;;;;18.60;37.50;;;;;;5097537;28;20018;-63
2022/12/14 09:31:43;;;;;;;;;;;18.60;37.60;;;;;;5097228;28;19920;-64
2022/12/14 09:34:10;;;;;;;;;;;18.70;37.70;;;;;;5096366;28;19965;-64
2022/12/14 09:36:37;;;;;;;;;;;18.70;37.70;;;;;;5097253;28;19919;-64
2022/12/14 09:39:04;;;;;;;;;;;18.70;37.70;;;;;;5097133;28;19920;-63
2022/12/14 09:41:34;;;;;;;;;;;18.70;37.70;;;;;;5113382;28;19919;-64
2022/12/14 09:44:02;;;;;;;;;;;18.70;37.80;;;;;;5115295;28;19923;-64
2022/12/14 09:46:33;;;;;;;;;;;18.70;37.80;;;;;;5097161;28;19969;-63
2022/12/14 09:49:02;;;;;;;;;;;18.70;37.80;;;;;;5096829;28;19965;-64
2022/12/14 09:51:30;;;;;;;;;;;18.70;38.40;;;;;;5096630;28;19927;-64
2022/12/14 09:54:02;;;;;;;;;;;18.70;37.80;;;;;;5096770;28;19919;-63
2022/12/14 09:56:29;;;;;;;;;;;18.70;37.90;;;;;;5097085;28;19973;-64
2022/12/14 09:58:56;;;;;;;;;;;18.70;37.90;;;;;;5114982;28;19934;-63
2022/12/14 10:01:32;;;;;;;;;;;18.70;37.90;;;;;;5096651;28;19927;-64
2022/12/14 10:04:00;;;;;;;;;;;18.70;37.90;;;;;;5115295;28;20368;-63
2022/12/14 10:06:31;;;;;;;;;;;18.70;37.90;;;;;;5097092;28;19926;-64
2022/12/14 10:09:01;;;;;;;;;;;18.80;38.00;;;;;;5096428;28;19920;-63
2022/12/14 10:11:29;;;;;;;;;;;18.80;38.00;;;;;;5096685;28;19987;-64
2022/12/14 10:13:58;;;;;;;;;;;18.80;38.00;;;;;;5096520;28;19920;-66
2022/12/14 10:16:27;;;;;;;;;;;18.80;38.00;;;;;;5096545;28;19968;-65
2022/12/14 10:19:06;;;;;;;;;;;18.80;38.10;;;;;;5114429;28;19953;-65
2022/12/14 10:21:45;;;;;;;;;;;18.80;38.10;;;;;;5096476;28;19968;-63
2022/12/14 10:24:13;;;;;;;;;;;18.80;38.70;;;;;;5114690;28;19919;-64
2022/12/14 10:26:41;;;;;;;;;;;18.80;38.20;;;;;;5114565;28;19920;-64
2022/12/14 10:29:10;;;;;;;;;;;18.80;38.10;;;;;;5096393;28;19928;-64
2022/12/14 10:31:39;;;;;;;;;;;18.80;38.20;;;;;;5096153;28;19959;-65
2022/12/14 10:34:10;;;;;;;;;;;18.80;38.20;;;;;;5114245;28;20277;-65
2022/12/14 10:36:38;;;;;;;;;;;18.80;38.20;;;;;;5096638;28;19949;-64
2022/12/14 10:39:07;;;;;;;;;;;18.80;38.20;;;;;;5095997;28;19924;-65
2022/12/14 10:41:35;;;;;;;;;;;18.80;38.30;;;;;;5096597;28;19969;-66
2022/12/14 10:44:04;;;;;;;;;;;18.80;38.30;;;;;;5096906;28;19919;-66
2022/12/14 10:46:34;;;;;;;;;;;18.80;38.30;;;;;;5099517;28;19974;-66
2022/12/14 10:49:01;;;;;;;;;;;18.80;38.30;;;;;;5098855;28;20000;-65
2022/12/14 10:51:30;;;;;;;;;;;18.90;38.40;;;;;;5100443;28;19965;-65
2022/12/14 10:53:58;;;;;;;;;;;18.90;38.40;;;;;;5118653;28;19919;-65
2022/12/14 10:56:27;;;;;;;;;;;18.90;38.40;;;;;;5100307;28;19924;-66
2022/12/14 10:59:27;;;;;;;;;;;18.90;38.40;;;;;;5118320;28;19924;-65
2022/12/14 11:01:55;;;;;;;;;;;18.90;38.40;;;;;;5055542;28;19971;-66
2022/12/14 11:04:28;;;;;;;;;;;18.90;38.40;;;;;;5055695;28;19927;-65
2022/12/14 11:06:55;;;;;;;;;;;18.90;38.50;;;;;;5069058;28;20008;-64
2022/12/14 11:09:22;;;;;;;;;;;18.90;38.50;;;;;;5118479;28;19928;-64
2022/12/14 11:11:50;;;;;;;;;;;18.90;38.60;;;;;;5099811;28;19924;-64
2022/12/14 11:14:17;;;;;;;;;;;18.90;38.60;;;;;;5117470;28;19920;-64
2022/12/14 11:16:44;;;;;;;;;;;18.90;38.60;;;;;;5097568;28;19929;-65
2022/12/14 11:19:14;;;;;;;;;;;19.00;38.70;;;;;;5099778;28;20380;-65
2022/12/14 11:21:41;;;;;;;;;;;19.00;38.70;;;;;;5100171;28;19919;-66
2022/12/14 11:24:09;;;;;;;;;;;19.00;38.70;;;;;;5118165;28;19919;-66
2022/12/14 11:26:37;;;;;;;;;;;19.00;38.70;;;;;;5099835;28;19920;-67
2022/12/14 11:29:05;;;;;;;;;;;19.00;38.70;;;;;;5118563;28;19977;-66
2022/12/14 11:31:33;;;;;;;;;;;19.00;38.70;;;;;;5099440;28;20246;-65
2022/12/14 11:34:00;;;;;;;;;;;19.00;38.70;;;;;;5099421;28;19927;-64
2022/12/14 11:36:28;;;;;;;;;;;19.00;38.70;;;;;;5099411;28;20039;-70
2022/12/14 11:38:56;;;;;;;;;;;19.00;38.70;;;;;;5099399;28;19963;-66
2022/12/14 11:41:23;;;;;;;;;;;19.00;38.70;;;;;;5117894;28;20319;-67
2022/12/14 11:44:00;;;;;;;;;;;19.00;38.70;;;;;;5099588;28;19965;-66
2022/12/14 11:46:37;;;;;;;;;;;19.00;38.70;;;;;;5099131;28;19924;-66
2022/12/14 11:49:04;;;;;;;;;;;19.00;38.80;;;;;;5099313;28;19969;-66
2022/12/14 11:51:31;;;;;;;;;;;19.00;38.90;;;;;;5098846;28;19920;-66
2022/12/14 11:54:01;;;;;;;;;;;19.00;38.80;;;;;;5099637;28;19923;-66
2022/12/14 11:56:27;;;;;;;;;;;19.00;38.80;;;;;;5114459;28;20357;-65
2022/12/14 11:58:54;;;;;;;;;;;19.00;38.80;;;;;;5099051;28;19919;-65
2022/12/14 12:01:23;;;;;;;;;;;19.00;38.70;;;;;;5099460;28;19927;-66
2022/12/14 12:03:52;;;;;;;;;;;19.00;38.70;;;;;;5099149;28;19995;-60
2022/12/14 12:06:19;;;;;;;;;;;19.00;38.70;;;;;;5099711;28;19920;-60
2022/12/14 12:08:46;;;;;;;;;;;19.00;36.20;;;;;;5117491;28;19924;-60
2022/12/14 12:11:14;;;;;;;;;;;18.90;35.80;;;;;;5099128;28;19927;-61
2022/12/14 12:13:41;;;;;;;;;;;18.90;35.50;;;;;;5099392;28;19936;-60
2022/12/14 12:16:12;;;;;;;;;;;18.80;35.10;;;;;;5098848;28;19969;-61
2022/12/14 12:18:39;;;;;;;;;;;18.80;34.80;;;;;;5098849;28;19919;-60
2022/12/14 12:21:08;;;;;;;;;;;18.80;34.50;;;;;;5098853;28;20043;-67
2022/12/14 12:23:35;;;;;;;;;;;18.70;34.20;;;;;;5095030;28;19945;-66
2022/12/14 12:26:03;;;;;;;;;;;18.70;34.90;;;;;;5099177;28;20029;-65
2022/12/14 12:28:31;;;;;;;;;;;18.70;35.30;;;;;;5116531;28;19980;-64
2022/12/14 12:30:59;;;;;;;;;;;18.70;35.70;;;;;;5116722;28;19923;-66
2022/12/14 12:33:28;;;;;;;;;;;18.70;36.00;;;;;;5116734;28;19955;-66
2022/12/14 12:35:55;;;;;;;;;;;18.70;36.30;;;;;;5099271;28;19969;-66
2022/12/14 12:38:39;;;;;;;;;;;18.70;36.50;;;;;;5098750;28;19927;-66
2022/12/14 12:41:12;;;;;;;;;;;18.70;36.60;;;;;;5116898;28;19931;-65
2022/12/14 12:43:40;;;;;;;;;;;18.70;36.70;;;;;;5098387;28;19924;-66
2022/12/14 12:46:10;;;;;;;;;;;18.70;36.80;;;;;;5099220;28;19976;-66
2022/12/14 12:48:37;;;;;;;;;;;18.80;37.00;;;;;;5096446;28;19924;-63
2022/12/14 12:51:05;;;;;;;;;;;18.80;37.10;;;;;;5098248;28;19919;-64
2022/12/14 12:53:33;;;;;;;;;;;18.80;37.20;;;;;;5099023;28;19968;-65
2022/12/14 12:56:03;;;;;;;;;;;18.80;37.30;;;;;;5098143;28;19969;-66
2022/12/14 12:58:32;;;;;;;;;;;18.80;37.40;;;;;;5116629;28;19919;-66
2022/12/14 13:00:59;;;;;;;;;;;18.80;37.40;;;;;;5098039;28;19926;-64
2022/12/14 13:03:27;;;;;;;;;;;18.80;37.50;;;;;;5098082;28;19965;-66
2022/12/14 13:05:54;;;;;;;;;;;18.80;37.60;;;;;;5097800;28;19923;-66
2022/12/14 13:08:25;;;;;;;;;;;18.80;37.60;;;;;;5097656;28;20422;-66
2022/12/14 13:10:52;;;;;;;;;;;18.80;37.60;;;;;;5098252;28;19919;-67
2022/12/14 13:13:20;;;;;;;;;;;18.80;37.70;;;;;;5098538;28;19920;-66
2022/12/14 13:15:49;;;;;;;;;;;18.80;37.70;;;;;;5097636;28;19955;-67
2022/12/14 13:18:20;;;;;;;;;;;18.80;37.70;;;;;;5097732;28;19927;-67
2022/12/14 13:20:48;;;;;;;;;;;18.90;37.80;;;;;;5097375;28;19924;-67
2022/12/14 13:23:15;;;;;;;;;;;18.90;37.90;;;;;;5097632;28;19920;-67
2022/12/14 13:25:42;;;;;;;;;;;18.90;37.90;;;;;;5095136;28;19919;-65
2022/12/14 13:28:17;;;;;;;;;;;18.90;37.90;;;;;;5097581;28;19920;-64
2022/12/14 13:30:57;;;;;;;;;;;18.90;38.00;;;;;;5097296;28;19920;-66
2022/12/14 13:33:45;;;;;;;;;;;18.90;38.10;;;;;;5097988;28;19919;-67
2022/12/14 13:36:18;;;;;;;;;;;18.90;38.10;;;;;;5097165;28;19920;-66
2022/12/14 13:38:54;;;;;;;;;;;18.90;38.20;;;;;;5097364;28;19920;-65
2022/12/14 13:41:25;;;;;;;;;;;18.90;38.10;;;;;;5097311;28;19973;-66
2022/12/14 13:43:57;;;;;;;;;;;18.90;38.20;;;;;;5097234;28;19926;-65
2022/12/14 13:46:27;;;;;;;;;;;18.90;37.70;;;;;;5097318;28;20325;-62
2022/12/14 13:48:55;;;;;;;;;;;18.90;38.30;;;;;;5094481;28;19924;-62
2022/12/14 13:51:27;;;;;;;;;;;18.90;38.30;;;;;;5094632;28;20285;-62
2022/12/14 13:53:57;;;;;;;;;;;18.90;38.00;;;;;;5094971;28;19924;-61
2022/12/14 13:56:25;;;;;;;;;;;18.90;37.60;;;;;;5076340;28;19966;-61
2022/12/14 13:58:52;;;;;;;;;;;18.90;37.50;;;;;;5076492;28;19920;-62
2022/12/14 14:01:33;;;;;;;;;;;18.90;37.60;;;;;;5076494;28;19926;-60
2022/12/14 14:04:20;;;;;;;;;;;18.90;38.20;;;;;;5076123;28;19920;-62
2022/12/14 14:06:48;;;;;;;;;;;18.90;37.70;;;;;;5077010;28;20474;-62
2022/12/14 14:09:33;;;;;;;;;;;18.90;37.70;;;;;;5094192;28;19927;-63
2022/12/14 14:12:00;;;;;;;;;;;18.90;37.80;;;;;;5076522;28;19920;-63
2022/12/14 14:14:36;;;;;;;;;;;18.90;37.90;;;;;;5075934;28;19924;-63
2022/12/14 14:17:06;;;;;;;;;;;18.90;38.00;;;;;;5076702;28;19940;-62
2022/12/14 14:19:38;;;;;;;;;;;18.90;38.00;;;;;;5075615;28;20381;-62
2022/12/14 14:22:19;;;;;;;;;;;18.90;38.10;;;;;;5094400;28;20427;-62
2022/12/14 14:24:53;;;;;;;;;;;18.90;38.10;;;;;;5076241;28;19951;-62
2022/12/14 14:27:20;;;;;;;;;;;18.90;38.20;;;;;;5076608;28;20427;-62
2022/12/14 14:29:47;;;;;;;;;;;18.90;38.20;;;;;;5075672;28;19920;-62
2022/12/14 14:32:36;;;;;;;;;;;18.90;38.30;;;;;;5075872;28;20528;-60
2022/12/14 14:35:04;;;;;;;;;;;18.90;38.30;;;;;;5076671;28;20014;-61
2022/12/14 14:37:31;;;;;;;;;;;18.90;38.30;;;;;;5080641;28;19920;-62
2022/12/14 14:40:16;;;;;;;;;;;18.90;38.30;;;;;;5075772;28;19924;-61
2022/12/14 14:42:46;;;;;;;;;;;18.90;38.40;;;;;;5075370;28;19927;-61